Fort Caswell, North Carolina
Current Conditions -  °F | °C
As of 5:55 PM on Tuesday 27 Jan 2015 (Local Time) from KSUT Reporting Station
Clear Clear  
Wind Chill: 41°   Ceiling: Unl
Heat Index: 41°   Visibility: 10mi
Dew Point: 27°   Wind: 3mph
Humidity: 59%   Direction: 320°NW
Pressure: 29.87"   Gusts: NA
Location:  33.9216°N, 78.1244°W
Report Text: KSUT 272255Z AUTO 32003KT 10SM CLR 05/M03 A2987 RMK AO2 T00481026
Loading
Personal Weather Stations






























Interactive Weather Map New forecast layout! Learn more

10-Day Weather Forecast

Advertisements
Track Severe Weather on mobile